Terminal Aerodrome Forecast
Issued by NWS

Home | Current Version | Previous Version | Text Only | Print | Product List | Glossary On
Versions: 1 2 3 4 5 6 7 8 9 10 11 12
000
FTUS45 KREV 201135
TAFTRK
TAF
KTRK 201135Z 2012/2112 21007KT P6SM BKN040
     FM201800 21015G28KT P6SM BKN070 BKN120
     FM202200 22014G24KT P6SM -SHRA SCT030 OVC045
     FM210300 22011G20KT P6SM VCSH BKN035 BKN060
     FM210700 21010KT P6SM SCT035=

USA.gov is the U.S. government's official web portal to all federal, state and local government web resources and services.